sensor_id;sensor_type;location;lat;lon;timestamp;P1;durP1;ratioP1;P2;durP2;ratioP2
8113;SDS011;4099;52.684;9.918;2023-04-15T00:03:28;7.77;;;6.33;;
8113;SDS011;4099;52.684;9.918;2023-04-15T00:08:33;7.70;;;6.67;;
8113;SDS011;4099;52.684;9.918;2023-04-15T00:13:36;8.13;;;6.77;;
8113;SDS011;4099;52.684;9.918;2023-04-15T00:18:38;8.87;;;7.00;;
8113;SDS011;4099;52.684;9.918;2023-04-15T00:23:40;10.10;;;7.37;;
8113;SDS011;4099;52.684;9.918;2023-04-15T00:28:43;10.10;;;7.33;;
8113;SDS011;4099;52.684;9.918;2023-04-15T00:33:45;11.07;;;7.30;;
8113;SDS011;4099;52.684;9.918;2023-04-15T00:38:47;11.43;;;7.50;;
8113;SDS011;4099;52.684;9.918;2023-04-15T00:43:50;9.50;;;7.40;;
8113;SDS011;4099;52.684;9.918;2023-04-15T00:48:52;9.30;;;7.20;;
8113;SDS011;4099;52.684;9.918;2023-04-15T00:53:55;9.67;;;7.47;;
8113;SDS011;4099;52.684;9.918;2023-04-15T00:58:58;11.43;;;8.47;;
8113;SDS011;4099;52.684;9.918;2023-04-15T01:04:01;11.57;;;8.57;;
8113;SDS011;4099;52.684;9.918;2023-04-15T01:09:04;9.93;;;8.23;;
8113;SDS011;4099;52.684;9.918;2023-04-15T01:14:07;11.23;;;8.40;;
8113;SDS011;4099;52.684;9.918;2023-04-15T01:19:10;11.87;;;8.97;;
8113;SDS011;4099;52.684;9.918;2023-04-15T01:24:12;12.80;;;9.40;;
8113;SDS011;4099;52.684;9.918;2023-04-15T01:29:19;11.63;;;9.20;;
8113;SDS011;4099;52.684;9.918;2023-04-15T01:34:21;13.13;;;9.27;;
8113;SDS011;4099;52.684;9.918;2023-04-15T01:39:27;11.83;;;9.47;;
8113;SDS011;4099;52.684;9.918;2023-04-15T01:44:33;14.47;;;9.77;;
8113;SDS011;4099;52.684;9.918;2023-04-15T01:49:34;13.73;;;9.37;;
8113;SDS011;4099;52.684;9.918;2023-04-15T01:54:36;13.23;;;9.90;;
8113;SDS011;4099;52.684;9.918;2023-04-15T01:59:39;18.13;;;13.27;;
8113;SDS011;4099;52.684;9.918;2023-04-15T02:04:41;12.50;;;9.73;;
8113;SDS011;4099;52.684;9.918;2023-04-15T02:09:43;14.70;;;11.07;;
8113;SDS011;4099;52.684;9.918;2023-04-15T02:14:48;13.87;;;10.17;;
8113;SDS011;4099;52.684;9.918;2023-04-15T02:19:50;15.43;;;10.70;;
8113;SDS011;4099;52.684;9.918;2023-04-15T02:24:51;15.77;;;13.20;;
8113;SDS011;4099;52.684;9.918;2023-04-15T02:29:55;15.60;;;10.67;;
8113;SDS011;4099;52.684;9.918;2023-04-15T02:35:01;15.90;;;11.63;;
8113;SDS011;4099;52.684;9.918;2023-04-15T02:40:05;14.70;;;10.87;;
8113;SDS011;4099;52.684;9.918;2023-04-15T02:45:10;16.20;;;11.67;;
8113;SDS011;4099;52.684;9.918;2023-04-15T02:50:13;19.40;;;14.37;;
8113;SDS011;4099;52.684;9.918;2023-04-15T02:55:16;17.53;;;13.00;;
8113;SDS011;4099;52.684;9.918;2023-04-15T03:00:19;19.53;;;14.43;;
8113;SDS011;4099;52.684;9.918;2023-04-15T03:05:23;22.43;;;16.10;;
8113;SDS011;4099;52.684;9.918;2023-04-15T03:10:25;22.53;;;16.03;;
8113;SDS011;4099;52.684;9.918;2023-04-15T03:15:29;23.13;;;16.60;;
8113;SDS011;4099;52.684;9.918;2023-04-15T03:20:34;23.37;;;15.60;;
8113;SDS011;4099;52.684;9.918;2023-04-15T03:25:36;24.27;;;16.43;;
8113;SDS011;4099;52.684;9.918;2023-04-15T03:30:41;35.97;;;24.83;;
8113;SDS011;4099;52.684;9.918;2023-04-15T03:35:43;27.60;;;17.27;;
8113;SDS011;4099;52.684;9.918;2023-04-15T03:40:45;26.33;;;17.70;;
8113;SDS011;4099;52.684;9.918;2023-04-15T03:45:48;29.00;;;18.37;;
8113;SDS011;4099;52.684;9.918;2023-04-15T03:50:50;25.80;;;17.20;;
8113;SDS011;4099;52.684;9.918;2023-04-15T03:55:52;26.83;;;16.97;;
8113;SDS011;4099;52.684;9.918;2023-04-15T04:00:55;28.83;;;18.73;;
8113;SDS011;4099;52.684;9.918;2023-04-15T04:05:57;28.73;;;18.23;;
8113;SDS011;4099;52.684;9.918;2023-04-15T04:10:58;27.47;;;17.63;;
8113;SDS011;4099;52.684;9.918;2023-04-15T04:16:05;27.87;;;17.17;;
8113;SDS011;4099;52.684;9.918;2023-04-15T04:21:06;28.00;;;17.30;;
8113;SDS011;4099;52.684;9.918;2023-04-15T04:26:08;28.70;;;17.50;;
8113;SDS011;4099;52.684;9.918;2023-04-15T04:31:11;28.17;;;17.23;;
8113;SDS011;4099;52.684;9.918;2023-04-15T04:36:13;30.60;;;17.97;;
8113;SDS011;4099;52.684;9.918;2023-04-15T04:41:15;26.20;;;17.17;;
8113;SDS011;4099;52.684;9.918;2023-04-15T04:46:19;26.87;;;16.77;;
8113;SDS011;4099;52.684;9.918;2023-04-15T04:51:20;25.80;;;16.30;;
8113;SDS011;4099;52.684;9.918;2023-04-15T04:56:22;26.97;;;16.43;;
8113;SDS011;4099;52.684;9.918;2023-04-15T05:01:25;24.80;;;15.47;;
8113;SDS011;4099;52.684;9.918;2023-04-15T05:06:27;26.10;;;15.37;;
8113;SDS011;4099;52.684;9.918;2023-04-15T05:11:30;25.23;;;15.67;;
8113;SDS011;4099;52.684;9.918;2023-04-15T05:16:33;29.33;;;16.53;;
8113;SDS011;4099;52.684;9.918;2023-04-15T05:21:34;28.03;;;15.97;;
8113;SDS011;4099;52.684;9.918;2023-04-15T05:26:37;31.50;;;21.47;;
8113;SDS011;4099;52.684;9.918;2023-04-15T05:31:40;25.90;;;18.57;;
8113;SDS011;4099;52.684;9.918;2023-04-15T05:36:42;24.03;;;16.07;;
8113;SDS011;4099;52.684;9.918;2023-04-15T05:41:44;21.27;;;14.30;;
8113;SDS011;4099;52.684;9.918;2023-04-15T05:46:47;22.13;;;13.77;;
8113;SDS011;4099;52.684;9.918;2023-04-15T05:51:48;21.10;;;13.33;;
8113;SDS011;4099;52.684;9.918;2023-04-15T05:56:50;23.70;;;14.27;;
8113;SDS011;4099;52.684;9.918;2023-04-15T06:01:53;19.47;;;12.10;;
8113;SDS011;4099;52.684;9.918;2023-04-15T06:06:55;20.43;;;11.80;;
8113;SDS011;4099;52.684;9.918;2023-04-15T06:11:57;18.83;;;13.27;;
8113;SDS011;4099;52.684;9.918;2023-04-15T06:17:02;15.37;;;10.37;;
8113;SDS011;4099;52.684;9.918;2023-04-15T06:22:03;13.13;;;8.40;;
8113;SDS011;4099;52.684;9.918;2023-04-15T06:27:06;12.90;;;8.53;;
8113;SDS011;4099;52.684;9.918;2023-04-15T06:32:09;13.10;;;8.73;;
8113;SDS011;4099;52.684;9.918;2023-04-15T06:37:11;12.13;;;7.77;;
8113;SDS011;4099;52.684;9.918;2023-04-15T06:42:15;17.30;;;13.40;;
8113;SDS011;4099;52.684;9.918;2023-04-15T06:47:18;10.73;;;8.20;;
8113;SDS011;4099;52.684;9.918;2023-04-15T06:52:20;10.93;;;7.50;;
8113;SDS011;4099;52.684;9.918;2023-04-15T06:57:21;11.43;;;7.77;;
8113;SDS011;4099;52.684;9.918;2023-04-15T07:02:24;18.63;;;14.70;;
8113;SDS011;4099;52.684;9.918;2023-04-15T07:07:26;11.27;;;7.90;;
8113;SDS011;4099;52.684;9.918;2023-04-15T07:12:28;9.13;;;6.50;;
8113;SDS011;4099;52.684;9.918;2023-04-15T07:17:31;9.53;;;6.00;;
8113;SDS011;4099;52.684;9.918;2023-04-15T07:22:33;8.37;;;5.47;;
8113;SDS011;4099;52.684;9.918;2023-04-15T07:27:35;8.53;;;5.90;;
8113;SDS011;4099;52.684;9.918;2023-04-15T07:32:38;7.00;;;5.40;;
8113;SDS011;4099;52.684;9.918;2023-04-15T07:37:40;8.63;;;5.93;;
8113;SDS011;4099;52.684;9.918;2023-04-15T07:42:42;8.03;;;6.03;;
8113;SDS011;4099;52.684;9.918;2023-04-15T07:47:45;7.53;;;6.00;;
8113;SDS011;4099;52.684;9.918;2023-04-15T07:52:47;9.37;;;6.57;;
8113;SDS011;4099;52.684;9.918;2023-04-15T07:57:50;7.47;;;6.07;;
8113;SDS011;4099;52.684;9.918;2023-04-15T08:02:55;8.80;;;6.47;;
8113;SDS011;4099;52.684;9.918;2023-04-15T08:07:58;8.83;;;7.00;;
8113;SDS011;4099;52.684;9.918;2023-04-15T08:13:00;10.73;;;7.97;;
8113;SDS011;4099;52.684;9.918;2023-04-15T08:18:03;13.13;;;9.23;;
8113;SDS011;4099;52.684;9.918;2023-04-15T08:23:05;16.20;;;10.40;;
8113;SDS011;4099;52.684;9.918;2023-04-15T08:28:07;14.83;;;10.17;;
8113;SDS011;4099;52.684;9.918;2023-04-15T08:33:10;18.27;;;12.27;;
8113;SDS011;4099;52.684;9.918;2023-04-15T08:38:12;29.87;;;20.27;;
8113;SDS011;4099;52.684;9.918;2023-04-15T08:43:17;23.63;;;13.90;;
8113;SDS011;4099;52.684;9.918;2023-04-15T08:48:22;24.37;;;13.77;;
8113;SDS011;4099;52.684;9.918;2023-04-15T08:53:28;29.20;;;15.63;;
8113;SDS011;4099;52.684;9.918;2023-04-15T08:58:30;25.67;;;15.13;;
8113;SDS011;4099;52.684;9.918;2023-04-15T09:03:34;28.17;;;16.50;;
8113;SDS011;4099;52.684;9.918;2023-04-15T09:08:37;35.53;;;18.97;;
8113;SDS011;4099;52.684;9.918;2023-04-15T09:13:39;35.50;;;19.63;;
8113;SDS011;4099;52.684;9.918;2023-04-15T09:18:42;42.60;;;22.87;;
8113;SDS011;4099;52.684;9.918;2023-04-15T09:23:53;46.43;;;24.87;;
8113;SDS011;4099;52.684;9.918;2023-04-15T09:29:01;48.37;;;25.37;;
8113;SDS011;4099;52.684;9.918;2023-04-15T09:34:07;48.63;;;26.83;;
8113;SDS011;4099;52.684;9.918;2023-04-15T09:39:08;50.50;;;27.07;;
8113;SDS011;4099;52.684;9.918;2023-04-15T09:44:20;53.67;;;28.20;;
8113;SDS011;4099;52.684;9.918;2023-04-15T09:49:24;49.87;;;28.57;;
8113;SDS011;4099;52.684;9.918;2023-04-15T09:54:32;54.20;;;28.97;;
8113;SDS011;4099;52.684;9.918;2023-04-15T09:59:38;56.27;;;29.50;;
8113;SDS011;4099;52.684;9.918;2023-04-15T10:04:41;53.77;;;30.07;;
8113;SDS011;4099;52.684;9.918;2023-04-15T10:09:44;60.40;;;31.63;;
8113;SDS011;4099;52.684;9.918;2023-04-15T10:14:47;52.87;;;29.93;;
8113;SDS011;4099;52.684;9.918;2023-04-15T10:19:54;53.17;;;29.63;;
8113;SDS011;4099;52.684;9.918;2023-04-15T10:24:56;54.00;;;29.97;;
8113;SDS011;4099;52.684;9.918;2023-04-15T10:29:59;50.83;;;29.57;;
8113;SDS011;4099;52.684;9.918;2023-04-15T10:35:03;52.80;;;29.80;;
8113;SDS011;4099;52.684;9.918;2023-04-15T10:45:27;50.43;;;30.07;;
8113;SDS011;4099;52.684;9.918;2023-04-15T10:50:33;46.20;;;28.63;;
8113;SDS011;4099;52.684;9.918;2023-04-15T10:55:38;46.97;;;28.13;;
8113;SDS011;4099;52.684;9.918;2023-04-15T11:00:40;51.27;;;29.60;;
8113;SDS011;4099;52.684;9.918;2023-04-15T11:05:53;48.57;;;29.73;;
8113;SDS011;4099;52.684;9.918;2023-04-15T11:10:56;47.77;;;29.37;;
8113;SDS011;4099;52.684;9.918;2023-04-15T11:15:58;48.87;;;29.47;;
8113;SDS011;4099;52.684;9.918;2023-04-15T11:21:05;51.40;;;30.97;;
8113;SDS011;4099;52.684;9.918;2023-04-15T11:26:08;51.87;;;30.73;;
8113;SDS011;4099;52.684;9.918;2023-04-15T11:31:11;49.70;;;30.00;;
8113;SDS011;4099;52.684;9.918;2023-04-15T11:36:15;51.03;;;31.40;;
8113;SDS011;4099;52.684;9.918;2023-04-15T11:41:19;54.50;;;33.30;;
8113;SDS011;4099;52.684;9.918;2023-04-15T11:46:27;53.13;;;31.27;;
8113;SDS011;4099;52.684;9.918;2023-04-15T11:51:32;50.83;;;30.77;;
8113;SDS011;4099;52.684;9.918;2023-04-15T11:56:34;53.17;;;32.20;;
8113;SDS011;4099;52.684;9.918;2023-04-15T12:01:36;52.63;;;31.83;;
8113;SDS011;4099;52.684;9.918;2023-04-15T12:06:43;48.57;;;31.10;;
8113;SDS011;4099;52.684;9.918;2023-04-15T12:11:46;49.30;;;31.63;;
8113;SDS011;4099;52.684;9.918;2023-04-15T12:16:48;50.40;;;31.00;;
8113;SDS011;4099;52.684;9.918;2023-04-15T12:21:56;48.57;;;32.10;;
8113;SDS011;4099;52.684;9.918;2023-04-15T12:27:02;48.77;;;30.67;;
8113;SDS011;4099;52.684;9.918;2023-04-15T12:32:05;44.10;;;27.47;;
8113;SDS011;4099;52.684;9.918;2023-04-15T12:37:10;36.47;;;25.43;;
8113;SDS011;4099;52.684;9.918;2023-04-15T12:42:13;35.30;;;25.37;;
8113;SDS011;4099;52.684;9.918;2023-04-15T12:47:15;32.40;;;22.80;;
8113;SDS011;4099;52.684;9.918;2023-04-15T12:52:18;31.13;;;22.27;;
8113;SDS011;4099;52.684;9.918;2023-04-15T12:57:20;27.87;;;22.03;;
8113;SDS011;4099;52.684;9.918;2023-04-15T13:02:22;24.80;;;18.97;;
8113;SDS011;4099;52.684;9.918;2023-04-15T13:07:25;24.57;;;18.90;;
8113;SDS011;4099;52.684;9.918;2023-04-15T13:12:27;23.07;;;17.70;;
8113;SDS011;4099;52.684;9.918;2023-04-15T13:17:30;21.90;;;17.70;;
8113;SDS011;4099;52.684;9.918;2023-04-15T13:22:33;19.53;;;16.67;;
8113;SDS011;4099;52.684;9.918;2023-04-15T13:27:34;20.73;;;18.10;;
8113;SDS011;4099;52.684;9.918;2023-04-15T13:32:36;22.27;;;17.67;;
8113;SDS011;4099;52.684;9.918;2023-04-15T13:37:39;18.90;;;16.43;;
8113;SDS011;4099;52.684;9.918;2023-04-15T13:42:41;20.53;;;16.63;;
8113;SDS011;4099;52.684;9.918;2023-04-15T13:47:43;18.33;;;16.23;;
8113;SDS011;4099;52.684;9.918;2023-04-15T13:52:46;20.37;;;16.37;;
8113;SDS011;4099;52.684;9.918;2023-04-15T13:57:48;18.13;;;16.10;;
8113;SDS011;4099;52.684;9.918;2023-04-15T14:02:50;20.67;;;16.27;;
8113;SDS011;4099;52.684;9.918;2023-04-15T14:07:54;18.93;;;15.83;;
8113;SDS011;4099;52.684;9.918;2023-04-15T14:12:55;19.50;;;15.90;;
8113;SDS011;4099;52.684;9.918;2023-04-15T14:17:57;20.60;;;16.37;;
8113;SDS011;4099;52.684;9.918;2023-04-15T14:23:00;20.33;;;17.03;;
8113;SDS011;4099;52.684;9.918;2023-04-15T14:28:02;17.70;;;15.37;;
8113;SDS011;4099;52.684;9.918;2023-04-15T14:33:03;17.23;;;14.43;;
8113;SDS011;4099;52.684;9.918;2023-04-15T14:38:07;15.63;;;13.93;;
8113;SDS011;4099;52.684;9.918;2023-04-15T14:43:09;16.40;;;14.47;;
8113;SDS011;4099;52.684;9.918;2023-04-15T14:48:12;15.20;;;13.60;;
8113;SDS011;4099;52.684;9.918;2023-04-15T14:53:15;16.30;;;14.57;;
8113;SDS011;4099;52.684;9.918;2023-04-15T14:58:16;15.73;;;13.23;;
8113;SDS011;4099;52.684;9.918;2023-04-15T15:03:18;15.37;;;13.63;;
8113;SDS011;4099;52.684;9.918;2023-04-15T15:08:21;15.53;;;13.87;;
8113;SDS011;4099;52.684;9.918;2023-04-15T15:13:23;15.10;;;13.57;;
8113;SDS011;4099;52.684;9.918;2023-04-15T15:18:25;15.30;;;12.77;;
8113;SDS011;4099;52.684;9.918;2023-04-15T15:23:28;14.93;;;13.13;;
8113;SDS011;4099;52.684;9.918;2023-04-15T15:28:31;15.13;;;12.97;;
8113;SDS011;4099;52.684;9.918;2023-04-15T15:33:33;15.13;;;13.53;;
8113;SDS011;4099;52.684;9.918;2023-04-15T15:38:36;15.00;;;12.67;;
8113;SDS011;4099;52.684;9.918;2023-04-15T15:43:37;21.10;;;17.23;;
8113;SDS011;4099;52.684;9.918;2023-04-15T15:48:39;17.00;;;14.60;;
8113;SDS011;4099;52.684;9.918;2023-04-15T15:53:42;15.23;;;13.63;;
8113;SDS011;4099;52.684;9.918;2023-04-15T15:58:44;14.93;;;12.87;;
8113;SDS011;4099;52.684;9.918;2023-04-15T16:03:46;22.00;;;19.73;;
8113;SDS011;4099;52.684;9.918;2023-04-15T16:08:49;17.30;;;14.10;;
8113;SDS011;4099;52.684;9.918;2023-04-15T16:13:51;14.23;;;12.73;;
8113;SDS011;4099;52.684;9.918;2023-04-15T16:18:53;14.83;;;13.33;;
8113;SDS011;4099;52.684;9.918;2023-04-15T16:23:56;17.23;;;14.30;;
8113;SDS011;4099;52.684;9.918;2023-04-15T16:28:58;16.17;;;14.00;;
8113;SDS011;4099;52.684;9.918;2023-04-15T16:34:01;17.03;;;14.77;;
8113;SDS011;4099;52.684;9.918;2023-04-15T16:39:04;16.57;;;14.67;;
8113;SDS011;4099;52.684;9.918;2023-04-15T16:44:05;17.60;;;15.70;;
8113;SDS011;4099;52.684;9.918;2023-04-15T16:49:08;18.07;;;15.80;;
8113;SDS011;4099;52.684;9.918;2023-04-15T16:54:11;17.57;;;15.87;;
8113;SDS011;4099;52.684;9.918;2023-04-15T16:59:13;19.60;;;17.50;;
8113;SDS011;4099;52.684;9.918;2023-04-15T17:04:15;19.17;;;17.27;;
8113;SDS011;4099;52.684;9.918;2023-04-15T17:09:18;18.43;;;16.53;;
8113;SDS011;4099;52.684;9.918;2023-04-15T17:14:20;16.73;;;14.87;;
8113;SDS011;4099;52.684;9.918;2023-04-15T17:19:22;16.27;;;14.63;;
8113;SDS011;4099;52.684;9.918;2023-04-15T17:24:25;17.37;;;15.57;;
8113;SDS011;4099;52.684;9.918;2023-04-15T17:29:26;20.03;;;17.07;;
8113;SDS011;4099;52.684;9.918;2023-04-15T17:34:28;16.27;;;14.57;;
8113;SDS011;4099;52.684;9.918;2023-04-15T17:39:31;17.40;;;15.70;;
8113;SDS011;4099;52.684;9.918;2023-04-15T17:44:33;16.30;;;14.70;;
8113;SDS011;4099;52.684;9.918;2023-04-15T17:49:34;17.07;;;15.27;;
8113;SDS011;4099;52.684;9.918;2023-04-15T17:54:38;17.80;;;16.00;;
8113;SDS011;4099;52.684;9.918;2023-04-15T17:59:39;18.00;;;16.10;;
8113;SDS011;4099;52.684;9.918;2023-04-15T18:04:43;21.37;;;19.07;;
8113;SDS011;4099;52.684;9.918;2023-04-15T18:09:46;20.53;;;18.40;;
8113;SDS011;4099;52.684;9.918;2023-04-15T18:14:49;19.83;;;17.83;;
8113;SDS011;4099;52.684;9.918;2023-04-15T18:19:51;20.53;;;17.27;;
8113;SDS011;4099;52.684;9.918;2023-04-15T18:24:54;18.30;;;15.73;;
8113;SDS011;4099;52.684;9.918;2023-04-15T18:29:58;16.83;;;15.03;;
8113;SDS011;4099;52.684;9.918;2023-04-15T18:34:59;16.80;;;14.90;;
8113;SDS011;4099;52.684;9.918;2023-04-15T18:40:03;16.83;;;14.73;;
8113;SDS011;4099;52.684;9.918;2023-04-15T18:45:07;15.77;;;14.07;;
8113;SDS011;4099;52.684;9.918;2023-04-15T18:50:09;18.23;;;15.07;;
8113;SDS011;4099;52.684;9.918;2023-04-15T18:55:12;17.03;;;14.30;;
8113;SDS011;4099;52.684;9.918;2023-04-15T19:00:15;16.87;;;14.90;;
8113;SDS011;4099;52.684;9.918;2023-04-15T19:05:16;16.10;;;14.40;;
8113;SDS011;4099;52.684;9.918;2023-04-15T19:10:20;17.10;;;14.37;;
8113;SDS011;4099;52.684;9.918;2023-04-15T19:15:22;17.27;;;14.50;;
8113;SDS011;4099;52.684;9.918;2023-04-15T19:20:24;16.70;;;14.87;;
8113;SDS011;4099;52.684;9.918;2023-04-15T19:25:27;17.67;;;15.60;;
8113;SDS011;4099;52.684;9.918;2023-04-15T19:30:29;19.30;;;17.23;;
8113;SDS011;4099;52.684;9.918;2023-04-15T19:35:32;18.73;;;15.33;;
8113;SDS011;4099;52.684;9.918;2023-04-15T19:40:35;18.17;;;16.20;;
8113;SDS011;4099;52.684;9.918;2023-04-15T19:45:40;19.07;;;16.73;;
8113;SDS011;4099;52.684;9.918;2023-04-15T19:50:44;21.53;;;18.17;;
8113;SDS011;4099;52.684;9.918;2023-04-15T19:55:47;41.27;;;26.07;;
8113;SDS011;4099;52.684;9.918;2023-04-15T20:00:50;31.83;;;22.80;;
8113;SDS011;4099;52.684;9.918;2023-04-15T20:05:51;23.23;;;18.90;;
8113;SDS011;4099;52.684;9.918;2023-04-15T20:10:55;22.20;;;19.47;;
8113;SDS011;4099;52.684;9.918;2023-04-15T20:15:57;23.27;;;19.03;;
8113;SDS011;4099;52.684;9.918;2023-04-15T20:20:59;28.90;;;21.93;;
8113;SDS011;4099;52.684;9.918;2023-04-15T20:26:02;25.57;;;21.47;;
8113;SDS011;4099;52.684;9.918;2023-04-15T20:31:03;23.23;;;19.87;;
8113;SDS011;4099;52.684;9.918;2023-04-15T20:36:05;22.60;;;19.07;;
8113;SDS011;4099;52.684;9.918;2023-04-15T20:41:08;23.80;;;19.60;;
8113;SDS011;4099;52.684;9.918;2023-04-15T20:46:10;25.93;;;20.53;;
8113;SDS011;4099;52.684;9.918;2023-04-15T20:51:12;26.13;;;20.80;;
8113;SDS011;4099;52.684;9.918;2023-04-15T20:56:15;28.23;;;22.87;;
8113;SDS011;4099;52.684;9.918;2023-04-15T21:01:17;29.67;;;23.47;;
8113;SDS011;4099;52.684;9.918;2023-04-15T21:06:18;26.60;;;21.13;;
8113;SDS011;4099;52.684;9.918;2023-04-15T21:11:41;27.60;;;22.30;;
8113;SDS011;4099;52.684;9.918;2023-04-15T21:16:45;26.57;;;22.57;;
8113;SDS011;4099;52.684;9.918;2023-04-15T21:21:47;29.47;;;24.03;;
8113;SDS011;4099;52.684;9.918;2023-04-15T21:26:50;27.33;;;22.40;;
8113;SDS011;4099;52.684;9.918;2023-04-15T21:31:52;27.53;;;23.07;;
8113;SDS011;4099;52.684;9.918;2023-04-15T21:36:54;28.43;;;22.50;;
8113;SDS011;4099;52.684;9.918;2023-04-15T21:41:57;27.90;;;22.57;;
8113;SDS011;4099;52.684;9.918;2023-04-15T21:46:59;27.50;;;23.43;;
8113;SDS011;4099;52.684;9.918;2023-04-15T21:52:01;26.80;;;22.87;;
8113;SDS011;4099;52.684;9.918;2023-04-15T21:57:05;27.53;;;21.87;;
8113;SDS011;4099;52.684;9.918;2023-04-15T22:02:06;31.77;;;22.93;;
8113;SDS011;4099;52.684;9.918;2023-04-15T22:07:08;27.93;;;22.80;;
8113;SDS011;4099;52.684;9.918;2023-04-15T22:12:11;27.30;;;22.13;;
8113;SDS011;4099;52.684;9.918;2023-04-15T22:17:13;28.07;;;23.50;;
8113;SDS011;4099;52.684;9.918;2023-04-15T22:22:14;27.43;;;22.80;;
8113;SDS011;4099;52.684;9.918;2023-04-15T22:27:17;28.03;;;22.90;;
8113;SDS011;4099;52.684;9.918;2023-04-15T22:32:19;30.03;;;24.13;;
8113;SDS011;4099;52.684;9.918;2023-04-15T22:37:21;32.83;;;25.00;;
8113;SDS011;4099;52.684;9.918;2023-04-15T22:42:25;29.43;;;23.50;;
8113;SDS011;4099;52.684;9.918;2023-04-15T22:47:26;32.33;;;24.33;;
8113;SDS011;4099;52.684;9.918;2023-04-15T22:52:28;32.10;;;23.87;;
8113;SDS011;4099;52.684;9.918;2023-04-15T22:57:31;35.00;;;26.50;;
8113;SDS011;4099;52.684;9.918;2023-04-15T23:02:33;34.23;;;27.43;;
8113;SDS011;4099;52.684;9.918;2023-04-15T23:07:35;33.30;;;27.43;;
8113;SDS011;4099;52.684;9.918;2023-04-15T23:12:38;34.70;;;28.03;;
8113;SDS011;4099;52.684;9.918;2023-04-15T23:17:40;36.87;;;27.33;;
8113;SDS011;4099;52.684;9.918;2023-04-15T23:22:42;34.97;;;27.17;;
8113;SDS011;4099;52.684;9.918;2023-04-15T23:27:45;37.90;;;28.23;;
8113;SDS011;4099;52.684;9.918;2023-04-15T23:32:46;37.23;;;28.43;;
8113;SDS011;4099;52.684;9.918;2023-04-15T23:37:48;37.33;;;28.00;;
8113;SDS011;4099;52.684;9.918;2023-04-15T23:42:51;39.17;;;28.53;;
8113;SDS011;4099;52.684;9.918;2023-04-15T23:47:53;37.73;;;28.53;;
8113;SDS011;4099;52.684;9.918;2023-04-15T23:52:55;37.70;;;28.47;;
8113;SDS011;4099;52.684;9.918;2023-04-15T23:57:58;35.00;;;26.93;;
